sensor_id;sensor_type;location;lat;lon;timestamp;P1;durP1;ratioP1;P2;durP2;ratioP2
10845;SDS011;5476;51.540;7.186;2023-02-21T00:02:38;43.27;;;26.97;;
10845;SDS011;5476;51.540;7.186;2023-02-21T00:07:59;51.70;;;29.77;;
10845;SDS011;5476;51.540;7.186;2023-02-21T00:10:47;47.80;;;27.77;;
10845;SDS011;5476;51.540;7.186;2023-02-21T00:18:41;47.80;;;26.87;;
10845;SDS011;5476;51.540;7.186;2023-02-21T00:21:27;43.53;;;27.47;;
10845;SDS011;5476;51.540;7.186;2023-02-21T00:24:13;46.30;;;27.07;;
10845;SDS011;5476;51.540;7.186;2023-02-21T00:26:58;46.43;;;26.93;;
10845;SDS011;5476;51.540;7.186;2023-02-21T00:29:45;47.13;;;26.87;;
10845;SDS011;5476;51.540;7.186;2023-02-21T00:32:30;46.63;;;27.57;;
10845;SDS011;5476;51.540;7.186;2023-02-21T00:35:30;52.10;;;27.93;;
10845;SDS011;5476;51.540;7.186;2023-02-21T00:38:15;52.67;;;28.17;;
10845;SDS011;5476;51.540;7.186;2023-02-21T00:41:05;47.70;;;27.33;;
10845;SDS011;5476;51.540;7.186;2023-02-21T00:43:50;47.83;;;27.37;;
10845;SDS011;5476;51.540;7.186;2023-02-21T00:46:35;42.83;;;24.73;;
10845;SDS011;5476;51.540;7.186;2023-02-21T00:49:23;50.73;;;26.97;;
10845;SDS011;5476;51.540;7.186;2023-02-21T00:52:12;47.77;;;26.57;;
10845;SDS011;5476;51.540;7.186;2023-02-21T00:54:59;52.90;;;27.37;;
10845;SDS011;5476;51.540;7.186;2023-02-21T00:57:45;49.90;;;26.67;;
10845;SDS011;5476;51.540;7.186;2023-02-21T01:00:33;54.33;;;27.53;;
10845;SDS011;5476;51.540;7.186;2023-02-21T01:47:48;54.27;;;29.10;;
10845;SDS011;5476;51.540;7.186;2023-02-21T01:50:33;50.90;;;27.63;;
10845;SDS011;5476;51.540;7.186;2023-02-21T01:53:19;54.27;;;28.70;;
10845;SDS011;5476;51.540;7.186;2023-02-21T01:56:06;59.60;;;30.30;;
10845;SDS011;5476;51.540;7.186;2023-02-21T01:58:56;55.90;;;29.37;;
10845;SDS011;5476;51.540;7.186;2023-02-21T02:01:43;56.87;;;29.97;;
10845;SDS011;5476;51.540;7.186;2023-02-21T02:07:37;53.63;;;28.97;;
10845;SDS011;5476;51.540;7.186;2023-02-21T02:10:43;56.87;;;29.13;;
10845;SDS011;5476;51.540;7.186;2023-02-21T02:13:34;56.37;;;29.80;;
10845;SDS011;5476;51.540;7.186;2023-02-21T02:43:53;64.87;;;30.13;;
10845;SDS011;5476;51.540;7.186;2023-02-21T02:49:37;62.37;;;30.97;;
10845;SDS011;5476;51.540;7.186;2023-02-21T02:52:21;66.20;;;31.90;;
10845;SDS011;5476;51.540;7.186;2023-02-21T02:54:58;64.80;;;30.33;;
10845;SDS011;5476;51.540;7.186;2023-02-21T02:58:00;60.30;;;30.07;;
10845;SDS011;5476;51.540;7.186;2023-02-21T03:07:25;60.03;;;29.27;;
10845;SDS011;5476;51.540;7.186;2023-02-21T03:10:08;61.00;;;30.33;;
10845;SDS011;5476;51.540;7.186;2023-02-21T03:12:56;58.37;;;29.93;;
10845;SDS011;5476;51.540;7.186;2023-02-21T03:15:46;62.13;;;29.73;;
10845;SDS011;5476;51.540;7.186;2023-02-21T03:18:18;62.93;;;31.17;;
10845;SDS011;5476;51.540;7.186;2023-02-21T03:20:57;65.57;;;31.47;;
10845;SDS011;5476;51.540;7.186;2023-02-21T03:26:23;57.60;;;30.43;;
10845;SDS011;5476;51.540;7.186;2023-02-21T03:34:14;65.33;;;32.00;;
10845;SDS011;5476;51.540;7.186;2023-02-21T03:36:45;71.97;;;33.60;;
10845;SDS011;5476;51.540;7.186;2023-02-21T03:39:28;69.07;;;33.73;;
10845;SDS011;5476;51.540;7.186;2023-02-21T03:42:17;67.30;;;33.20;;
10845;SDS011;5476;51.540;7.186;2023-02-21T03:45:12;66.83;;;32.27;;
10845;SDS011;5476;51.540;7.186;2023-02-21T03:47:50;68.00;;;32.83;;
10845;SDS011;5476;51.540;7.186;2023-02-21T03:50:25;72.90;;;33.53;;
10845;SDS011;5476;51.540;7.186;2023-02-21T03:53:11;71.87;;;34.00;;
10845;SDS011;5476;51.540;7.186;2023-02-21T03:56:00;71.63;;;34.10;;
10845;SDS011;5476;51.540;7.186;2023-02-21T04:16:40;68.93;;;34.33;;
10845;SDS011;5476;51.540;7.186;2023-02-21T04:19:15;72.73;;;33.60;;
10845;SDS011;5476;51.540;7.186;2023-02-21T04:21:46;71.17;;;34.47;;
10845;SDS011;5476;51.540;7.186;2023-02-21T04:24:16;64.97;;;32.73;;
10845;SDS011;5476;51.540;7.186;2023-02-21T04:26:52;68.60;;;34.03;;
10845;SDS011;5476;51.540;7.186;2023-02-21T04:29:27;71.83;;;34.50;;
10845;SDS011;5476;51.540;7.186;2023-02-21T04:31:58;67.50;;;33.50;;
10845;SDS011;5476;51.540;7.186;2023-02-21T04:34:27;73.00;;;33.77;;
10845;SDS011;5476;51.540;7.186;2023-02-21T04:36:56;71.10;;;34.03;;
10845;SDS011;5476;51.540;7.186;2023-02-21T04:39:30;78.23;;;36.37;;
10845;SDS011;5476;51.540;7.186;2023-02-21T04:42:02;67.23;;;33.47;;
10845;SDS011;5476;51.540;7.186;2023-02-21T04:44:33;70.40;;;34.73;;
10845;SDS011;5476;51.540;7.186;2023-02-21T04:47:09;69.37;;;33.93;;
10845;SDS011;5476;51.540;7.186;2023-02-21T04:49:42;70.27;;;34.33;;
10845;SDS011;5476;51.540;7.186;2023-02-21T04:52:15;72.20;;;35.00;;
10845;SDS011;5476;51.540;7.186;2023-02-21T04:54:46;72.17;;;34.57;;
10845;SDS011;5476;51.540;7.186;2023-02-21T04:57:14;74.53;;;34.17;;
10845;SDS011;5476;51.540;7.186;2023-02-21T04:59:43;71.13;;;33.60;;
10845;SDS011;5476;51.540;7.186;2023-02-21T05:02:13;76.20;;;35.23;;
10845;SDS011;5476;51.540;7.186;2023-02-21T05:04:42;73.17;;;33.83;;
10845;SDS011;5476;51.540;7.186;2023-02-21T05:07:10;74.63;;;34.40;;
10845;SDS011;5476;51.540;7.186;2023-02-21T05:09:37;77.60;;;37.17;;
10845;SDS011;5476;51.540;7.186;2023-02-21T05:12:07;75.57;;;34.33;;
10845;SDS011;5476;51.540;7.186;2023-02-21T05:14:36;76.90;;;35.27;;
10845;SDS011;5476;51.540;7.186;2023-02-21T05:17:03;73.67;;;34.37;;
10845;SDS011;5476;51.540;7.186;2023-02-21T05:19:33;77.97;;;34.87;;
10845;SDS011;5476;51.540;7.186;2023-02-21T05:22:05;76.27;;;34.67;;
10845;SDS011;5476;51.540;7.186;2023-02-21T05:24:39;80.17;;;35.00;;
10845;SDS011;5476;51.540;7.186;2023-02-21T05:27:07;76.03;;;35.57;;
10845;SDS011;5476;51.540;7.186;2023-02-21T05:29:39;81.70;;;35.17;;
10845;SDS011;5476;51.540;7.186;2023-02-21T05:32:09;74.73;;;34.43;;
10845;SDS011;5476;51.540;7.186;2023-02-21T05:34:44;84.50;;;36.87;;
10845;SDS011;5476;51.540;7.186;2023-02-21T05:37:25;79.73;;;35.60;;
10845;SDS011;5476;51.540;7.186;2023-02-21T05:39:56;78.73;;;35.03;;
10845;SDS011;5476;51.540;7.186;2023-02-21T05:42:23;81.47;;;35.13;;
10845;SDS011;5476;51.540;7.186;2023-02-21T05:44:52;79.50;;;35.07;;
10845;SDS011;5476;51.540;7.186;2023-02-21T05:47:20;78.10;;;35.20;;
10845;SDS011;5476;51.540;7.186;2023-02-21T05:49:50;83.83;;;34.50;;
10845;SDS011;5476;51.540;7.186;2023-02-21T05:52:19;81.40;;;35.73;;
10845;SDS011;5476;51.540;7.186;2023-02-21T05:54:49;86.53;;;37.03;;
10845;SDS011;5476;51.540;7.186;2023-02-21T05:57:16;88.60;;;35.33;;
10845;SDS011;5476;51.540;7.186;2023-02-21T05:59:45;88.30;;;35.77;;
10845;SDS011;5476;51.540;7.186;2023-02-21T06:02:18;83.50;;;34.03;;
10845;SDS011;5476;51.540;7.186;2023-02-21T06:04:46;89.60;;;36.90;;
10845;SDS011;5476;51.540;7.186;2023-02-21T06:07:15;79.77;;;35.13;;
10845;SDS011;5476;51.540;7.186;2023-02-21T06:09:43;86.70;;;36.80;;
10845;SDS011;5476;51.540;7.186;2023-02-21T06:12:13;80.13;;;33.43;;
10845;SDS011;5476;51.540;7.186;2023-02-21T06:14:40;78.73;;;34.03;;
10845;SDS011;5476;51.540;7.186;2023-02-21T06:17:08;79.53;;;33.60;;
10845;SDS011;5476;51.540;7.186;2023-02-21T06:19:36;81.13;;;34.97;;
10845;SDS011;5476;51.540;7.186;2023-02-21T06:22:03;76.10;;;34.00;;
10845;SDS011;5476;51.540;7.186;2023-02-21T06:24:34;80.20;;;33.43;;
10845;SDS011;5476;51.540;7.186;2023-02-21T06:27:02;81.60;;;32.77;;
10845;SDS011;5476;51.540;7.186;2023-02-21T06:29:30;78.20;;;33.33;;
10845;SDS011;5476;51.540;7.186;2023-02-21T06:31:58;89.63;;;34.90;;
10845;SDS011;5476;51.540;7.186;2023-02-21T06:34:26;91.70;;;35.53;;
10845;SDS011;5476;51.540;7.186;2023-02-21T06:36:55;84.77;;;34.77;;
10845;SDS011;5476;51.540;7.186;2023-02-21T06:39:23;87.80;;;34.97;;
10845;SDS011;5476;51.540;7.186;2023-02-21T06:41:52;88.03;;;33.80;;
10845;SDS011;5476;51.540;7.186;2023-02-21T06:44:19;88.13;;;34.47;;
10845;SDS011;5476;51.540;7.186;2023-02-21T06:46:47;88.70;;;34.80;;
10845;SDS011;5476;51.540;7.186;2023-02-21T06:49:18;90.90;;;35.27;;
10845;SDS011;5476;51.540;7.186;2023-02-21T06:51:49;95.60;;;36.20;;
10845;SDS011;5476;51.540;7.186;2023-02-21T06:54:16;96.87;;;38.50;;
10845;SDS011;5476;51.540;7.186;2023-02-21T06:56:44;90.40;;;36.23;;
10845;SDS011;5476;51.540;7.186;2023-02-21T06:59:13;90.20;;;34.80;;
10845;SDS011;5476;51.540;7.186;2023-02-21T07:01:41;90.37;;;34.90;;
10845;SDS011;5476;51.540;7.186;2023-02-21T07:04:09;85.93;;;33.70;;
10845;SDS011;5476;51.540;7.186;2023-02-21T07:06:37;90.43;;;35.07;;
10845;SDS011;5476;51.540;7.186;2023-02-21T07:09:04;96.90;;;35.00;;
10845;SDS011;5476;51.540;7.186;2023-02-21T07:11:33;94.20;;;34.40;;
10845;SDS011;5476;51.540;7.186;2023-02-21T07:14:02;98.67;;;34.53;;
10845;SDS011;5476;51.540;7.186;2023-02-21T07:16:31;98.43;;;36.00;;
10845;SDS011;5476;51.540;7.186;2023-02-21T07:19:03;90.33;;;34.23;;
10845;SDS011;5476;51.540;7.186;2023-02-21T07:21:30;98.43;;;35.47;;
10845;SDS011;5476;51.540;7.186;2023-02-21T07:23:58;96.33;;;36.60;;
10845;SDS011;5476;51.540;7.186;2023-02-21T07:26:25;94.10;;;35.17;;
10845;SDS011;5476;51.540;7.186;2023-02-21T07:28:53;91.10;;;33.97;;
10845;SDS011;5476;51.540;7.186;2023-02-21T07:31:20;85.27;;;33.60;;
10845;SDS011;5476;51.540;7.186;2023-02-21T07:33:52;89.70;;;33.90;;
10845;SDS011;5476;51.540;7.186;2023-02-21T07:36:23;86.97;;;33.47;;
10845;SDS011;5476;51.540;7.186;2023-02-21T07:38:50;86.67;;;33.67;;
10845;SDS011;5476;51.540;7.186;2023-02-21T07:41:18;85.73;;;32.60;;
10845;SDS011;5476;51.540;7.186;2023-02-21T07:44:00;88.37;;;34.13;;
10845;SDS011;5476;51.540;7.186;2023-02-21T07:46:36;95.87;;;35.27;;
10845;SDS011;5476;51.540;7.186;2023-02-21T07:55:20;89.43;;;34.50;;
10845;SDS011;5476;51.540;7.186;2023-02-21T07:58:05;92.37;;;33.93;;
10845;SDS011;5476;51.540;7.186;2023-02-21T08:03:28;92.57;;;35.73;;
10845;SDS011;5476;51.540;7.186;2023-02-21T08:35:11;93.00;;;31.87;;
10845;SDS011;5476;51.540;7.186;2023-02-21T08:37:54;89.23;;;32.60;;
10845;SDS011;5476;51.540;7.186;2023-02-21T08:40:35;84.70;;;29.90;;
10845;SDS011;5476;51.540;7.186;2023-02-21T08:43:17;81.17;;;27.80;;
10845;SDS011;5476;51.540;7.186;2023-02-21T08:51:13;89.43;;;30.83;;
10845;SDS011;5476;51.540;7.186;2023-02-21T08:56:37;86.37;;;29.53;;
10845;SDS011;5476;51.540;7.186;2023-02-21T09:01:46;84.53;;;29.17;;
10845;SDS011;5476;51.540;7.186;2023-02-21T09:04:54;91.00;;;29.07;;
10845;SDS011;5476;51.540;7.186;2023-02-21T09:10:22;73.30;;;27.33;;
10845;SDS011;5476;51.540;7.186;2023-02-21T09:12:57;82.37;;;27.53;;
10845;SDS011;5476;51.540;7.186;2023-02-21T09:29:27;75.57;;;27.80;;
10845;SDS011;5476;51.540;7.186;2023-02-21T09:31:58;83.67;;;26.70;;
10845;SDS011;5476;51.540;7.186;2023-02-21T09:34:32;70.37;;;26.77;;
10845;SDS011;5476;51.540;7.186;2023-02-21T09:37:06;76.47;;;26.00;;
10845;SDS011;5476;51.540;7.186;2023-02-21T09:39:41;77.40;;;25.60;;
10845;SDS011;5476;51.540;7.186;2023-02-21T09:42:27;77.50;;;29.57;;
10845;SDS011;5476;51.540;7.186;2023-02-21T09:48:03;72.80;;;26.10;;
10845;SDS011;5476;51.540;7.186;2023-02-21T09:50:38;71.67;;;26.50;;
10845;SDS011;5476;51.540;7.186;2023-02-21T09:53:08;65.83;;;24.77;;
10845;SDS011;5476;51.540;7.186;2023-02-21T09:55:38;68.10;;;25.60;;
10845;SDS011;5476;51.540;7.186;2023-02-21T09:58:08;69.47;;;26.33;;
10845;SDS011;5476;51.540;7.186;2023-02-21T10:00:41;65.90;;;24.87;;
10845;SDS011;5476;51.540;7.186;2023-02-21T10:06:23;63.13;;;23.80;;
10845;SDS011;5476;51.540;7.186;2023-02-21T10:08:56;60.57;;;23.13;;
10845;SDS011;5476;51.540;7.186;2023-02-21T10:11:27;64.43;;;24.20;;
10845;SDS011;5476;51.540;7.186;2023-02-21T10:14:00;57.90;;;23.00;;
10845;SDS011;5476;51.540;7.186;2023-02-21T10:16:33;56.43;;;22.77;;
10845;SDS011;5476;51.540;7.186;2023-02-21T10:19:05;55.10;;;22.33;;
10845;SDS011;5476;51.540;7.186;2023-02-21T10:21:38;56.00;;;22.37;;
10845;SDS011;5476;51.540;7.186;2023-02-21T10:24:09;51.67;;;22.47;;
10845;SDS011;5476;51.540;7.186;2023-02-21T10:26:38;59.40;;;23.87;;
10845;SDS011;5476;51.540;7.186;2023-02-21T10:29:12;52.77;;;22.50;;
10845;SDS011;5476;51.540;7.186;2023-02-21T10:32:27;54.57;;;22.53;;
10845;SDS011;5476;51.540;7.186;2023-02-21T10:35:14;49.97;;;22.27;;
10845;SDS011;5476;51.540;7.186;2023-02-21T10:37:49;50.60;;;22.50;;
10845;SDS011;5476;51.540;7.186;2023-02-21T10:40:31;59.50;;;23.57;;
10845;SDS011;5476;51.540;7.186;2023-02-21T10:45:49;55.47;;;23.43;;
10845;SDS011;5476;51.540;7.186;2023-02-21T10:48:19;56.33;;;23.47;;
10845;SDS011;5476;51.540;7.186;2023-02-21T10:51:03;56.47;;;23.23;;
10845;SDS011;5476;51.540;7.186;2023-02-21T10:56:27;58.07;;;25.27;;
10845;SDS011;5476;51.540;7.186;2023-02-21T10:59:00;52.43;;;23.83;;
10845;SDS011;5476;51.540;7.186;2023-02-21T11:01:44;49.03;;;22.87;;
10845;SDS011;5476;51.540;7.186;2023-02-21T11:04:24;52.00;;;22.57;;
10845;SDS011;5476;51.540;7.186;2023-02-21T11:07:01;46.97;;;23.43;;
10845;SDS011;5476;51.540;7.186;2023-02-21T11:09:36;48.63;;;22.13;;
10845;SDS011;5476;51.540;7.186;2023-02-21T11:18:10;49.37;;;21.83;;
10845;SDS011;5476;51.540;7.186;2023-02-21T11:20:55;49.27;;;22.27;;
10845;SDS011;5476;51.540;7.186;2023-02-21T11:23:36;45.70;;;21.50;;
10845;SDS011;5476;51.540;7.186;2023-02-21T11:26:08;43.93;;;21.60;;
10845;SDS011;5476;51.540;7.186;2023-02-21T11:28:37;45.50;;;20.07;;
10845;SDS011;5476;51.540;7.186;2023-02-21T11:31:14;46.97;;;19.60;;
10845;SDS011;5476;51.540;7.186;2023-02-21T11:33:46;39.83;;;19.23;;
10845;SDS011;5476;51.540;7.186;2023-02-21T11:36:18;43.63;;;20.80;;
10845;SDS011;5476;51.540;7.186;2023-02-21T11:38:58;44.37;;;20.53;;
10845;SDS011;5476;51.540;7.186;2023-02-21T11:41:27;47.60;;;21.83;;
10845;SDS011;5476;51.540;7.186;2023-02-21T11:43:54;48.30;;;21.43;;
10845;SDS011;5476;51.540;7.186;2023-02-21T11:46:29;47.93;;;22.03;;
10845;SDS011;5476;51.540;7.186;2023-02-21T11:49:01;45.77;;;20.87;;
10845;SDS011;5476;51.540;7.186;2023-02-21T11:51:36;49.73;;;22.63;;
10845;SDS011;5476;51.540;7.186;2023-02-21T11:54:06;45.97;;;21.37;;
10845;SDS011;5476;51.540;7.186;2023-02-21T11:56:38;50.17;;;21.87;;
10845;SDS011;5476;51.540;7.186;2023-02-21T11:59:13;50.27;;;22.77;;
10845;SDS011;5476;51.540;7.186;2023-02-21T12:01:45;48.67;;;22.70;;
10845;SDS011;5476;51.540;7.186;2023-02-21T12:04:24;46.57;;;21.47;;
10845;SDS011;5476;51.540;7.186;2023-02-21T12:07:15;42.90;;;21.60;;
10845;SDS011;5476;51.540;7.186;2023-02-21T12:09:47;44.07;;;22.20;;
10845;SDS011;5476;51.540;7.186;2023-02-21T12:12:21;44.77;;;21.80;;
10845;SDS011;5476;51.540;7.186;2023-02-21T12:14:55;46.30;;;22.20;;
10845;SDS011;5476;51.540;7.186;2023-02-21T12:17:37;46.17;;;21.93;;
10845;SDS011;5476;51.540;7.186;2023-02-21T12:23:11;39.83;;;20.90;;
10845;SDS011;5476;51.540;7.186;2023-02-21T12:25:46;41.90;;;20.30;;
10845;SDS011;5476;51.540;7.186;2023-02-21T12:28:21;38.60;;;18.67;;
10845;SDS011;5476;51.540;7.186;2023-02-21T12:31:10;40.80;;;19.50;;
10845;SDS011;5476;51.540;7.186;2023-02-21T12:33:43;36.30;;;18.40;;
10845;SDS011;5476;51.540;7.186;2023-02-21T12:36:40;32.23;;;16.83;;
10845;SDS011;5476;51.540;7.186;2023-02-21T12:45:43;19.40;;;11.37;;
10845;SDS011;5476;51.540;7.186;2023-02-21T12:51:32;20.77;;;11.77;;
10845;SDS011;5476;51.540;7.186;2023-02-21T12:54:29;19.03;;;11.17;;
10845;SDS011;5476;51.540;7.186;2023-02-21T12:57:00;21.03;;;12.13;;
10845;SDS011;5476;51.540;7.186;2023-02-21T12:59:30;20.70;;;12.10;;
10845;SDS011;5476;51.540;7.186;2023-02-21T13:02:11;18.17;;;11.27;;
10845;SDS011;5476;51.540;7.186;2023-02-21T13:07:11;19.40;;;12.03;;
10845;SDS011;5476;51.540;7.186;2023-02-21T13:09:55;27.70;;;15.10;;
10845;SDS011;5476;51.540;7.186;2023-02-21T13:12:27;27.10;;;14.57;;
10845;SDS011;5476;51.540;7.186;2023-02-21T13:14:56;30.47;;;15.23;;
10845;SDS011;5476;51.540;7.186;2023-02-21T13:31:54;22.10;;;12.73;;
10845;SDS011;5476;51.540;7.186;2023-02-21T13:34:25;21.60;;;12.67;;
10845;SDS011;5476;51.540;7.186;2023-02-21T13:36:59;22.50;;;13.07;;
10845;SDS011;5476;51.540;7.186;2023-02-21T13:39:44;21.03;;;11.77;;
10845;SDS011;5476;51.540;7.186;2023-02-21T13:42:27;25.13;;;13.40;;
10845;SDS011;5476;51.540;7.186;2023-02-21T13:45:05;25.07;;;13.87;;
10845;SDS011;5476;51.540;7.186;2023-02-21T14:45:45;26.87;;;15.60;;
10845;SDS011;5476;51.540;7.186;2023-02-21T14:48:24;25.33;;;15.30;;
10845;SDS011;5476;51.540;7.186;2023-02-21T14:53:50;27.13;;;15.57;;
10845;SDS011;5476;51.540;7.186;2023-02-21T15:00:02;31.80;;;17.03;;
10845;SDS011;5476;51.540;7.186;2023-02-21T15:02:35;29.60;;;16.90;;
10845;SDS011;5476;51.540;7.186;2023-02-21T15:05:13;30.37;;;16.87;;
10845;SDS011;5476;51.540;7.186;2023-02-21T15:07:44;29.73;;;17.83;;
10845;SDS011;5476;51.540;7.186;2023-02-21T15:10:17;31.37;;;17.33;;
10845;SDS011;5476;51.540;7.186;2023-02-21T15:12:45;31.37;;;17.17;;
10845;SDS011;5476;51.540;7.186;2023-02-21T15:15:13;29.37;;;17.17;;
10845;SDS011;5476;51.540;7.186;2023-02-21T15:17:42;30.37;;;17.37;;
10845;SDS011;5476;51.540;7.186;2023-02-21T15:20:13;30.53;;;17.03;;
10845;SDS011;5476;51.540;7.186;2023-02-21T15:22:40;33.47;;;17.77;;
10845;SDS011;5476;51.540;7.186;2023-02-21T15:25:15;29.80;;;17.37;;
10845;SDS011;5476;51.540;7.186;2023-02-21T15:27:51;33.03;;;17.87;;
10845;SDS011;5476;51.540;7.186;2023-02-21T15:30:19;32.90;;;17.40;;
10845;SDS011;5476;51.540;7.186;2023-02-21T15:32:52;30.10;;;17.40;;
10845;SDS011;5476;51.540;7.186;2023-02-21T15:35:21;34.40;;;19.00;;
10845;SDS011;5476;51.540;7.186;2023-02-21T15:37:49;33.80;;;18.53;;
10845;SDS011;5476;51.540;7.186;2023-02-21T15:40:17;35.60;;;18.80;;
10845;SDS011;5476;51.540;7.186;2023-02-21T15:42:45;37.20;;;18.60;;
10845;SDS011;5476;51.540;7.186;2023-02-21T15:45:15;36.70;;;19.10;;
10845;SDS011;5476;51.540;7.186;2023-02-21T15:47:43;38.27;;;19.57;;
10845;SDS011;5476;51.540;7.186;2023-02-21T15:50:13;39.97;;;19.93;;
10845;SDS011;5476;51.540;7.186;2023-02-21T15:52:43;42.27;;;20.03;;
10845;SDS011;5476;51.540;7.186;2023-02-21T15:55:25;40.97;;;20.50;;
10845;SDS011;5476;51.540;7.186;2023-02-21T15:57:57;38.47;;;20.13;;
10845;SDS011;5476;51.540;7.186;2023-02-21T16:00:25;35.37;;;17.60;;
10845;SDS011;5476;51.540;7.186;2023-02-21T16:05:36;41.37;;;20.67;;
10845;SDS011;5476;51.540;7.186;2023-02-21T16:08:03;39.67;;;20.57;;
10845;SDS011;5476;51.540;7.186;2023-02-21T16:10:30;47.07;;;22.13;;
10845;SDS011;5476;51.540;7.186;2023-02-21T16:12:58;44.83;;;21.63;;
10845;SDS011;5476;51.540;7.186;2023-02-21T16:15:26;45.17;;;23.10;;
10845;SDS011;5476;51.540;7.186;2023-02-21T16:17:55;46.03;;;22.43;;
10845;SDS011;5476;51.540;7.186;2023-02-21T16:20:26;40.03;;;20.43;;
10845;SDS011;5476;51.540;7.186;2023-02-21T16:25:46;44.73;;;22.23;;
10845;SDS011;5476;51.540;7.186;2023-02-21T16:28:20;49.47;;;24.20;;
10845;SDS011;5476;51.540;7.186;2023-02-21T16:30:47;45.57;;;22.13;;
10845;SDS011;5476;51.540;7.186;2023-02-21T16:33:14;49.77;;;23.93;;
10845;SDS011;5476;51.540;7.186;2023-02-21T16:35:41;47.40;;;23.27;;
10845;SDS011;5476;51.540;7.186;2023-02-21T16:38:10;49.57;;;24.40;;
10845;SDS011;5476;51.540;7.186;2023-02-21T16:40:39;43.87;;;23.47;;
10845;SDS011;5476;51.540;7.186;2023-02-21T16:43:10;49.90;;;23.47;;
10845;SDS011;5476;51.540;7.186;2023-02-21T16:45:41;46.07;;;22.57;;
10845;SDS011;5476;51.540;7.186;2023-02-21T16:48:09;46.23;;;21.33;;
10845;SDS011;5476;51.540;7.186;2023-02-21T16:50:37;38.67;;;19.70;;
10845;SDS011;5476;51.540;7.186;2023-02-21T16:53:04;39.40;;;19.07;;
10845;SDS011;5476;51.540;7.186;2023-02-21T16:55:36;37.00;;;19.70;;
10845;SDS011;5476;51.540;7.186;2023-02-21T16:58:04;33.90;;;17.87;;
10845;SDS011;5476;51.540;7.186;2023-02-21T17:00:33;32.83;;;18.83;;
10845;SDS011;5476;51.540;7.186;2023-02-21T17:03:00;35.83;;;18.17;;
10845;SDS011;5476;51.540;7.186;2023-02-21T17:05:27;37.00;;;18.90;;
10845;SDS011;5476;51.540;7.186;2023-02-21T17:07:54;36.47;;;20.03;;
10845;SDS011;5476;51.540;7.186;2023-02-21T17:10:22;38.60;;;20.43;;
10845;SDS011;5476;51.540;7.186;2023-02-21T17:12:49;34.97;;;20.13;;
10845;SDS011;5476;51.540;7.186;2023-02-21T17:15:17;44.53;;;20.90;;
10845;SDS011;5476;51.540;7.186;2023-02-21T17:17:47;46.83;;;22.13;;
10845;SDS011;5476;51.540;7.186;2023-02-21T17:20:15;44.10;;;21.03;;
10845;SDS011;5476;51.540;7.186;2023-02-21T17:22:42;40.23;;;20.43;;
10845;SDS011;5476;51.540;7.186;2023-02-21T17:25:10;40.80;;;20.27;;
10845;SDS011;5476;51.540;7.186;2023-02-21T17:27:37;40.87;;;20.30;;
10845;SDS011;5476;51.540;7.186;2023-02-21T17:30:04;37.43;;;20.23;;
10845;SDS011;5476;51.540;7.186;2023-02-21T17:32:32;37.37;;;20.07;;
10845;SDS011;5476;51.540;7.186;2023-02-21T17:35:01;42.57;;;20.67;;
10845;SDS011;5476;51.540;7.186;2023-02-21T17:37:28;48.63;;;22.00;;
10845;SDS011;5476;51.540;7.186;2023-02-21T17:39:55;41.47;;;20.93;;
10845;SDS011;5476;51.540;7.186;2023-02-21T17:42:23;40.43;;;22.20;;
10845;SDS011;5476;51.540;7.186;2023-02-21T17:44:50;41.00;;;20.13;;
10845;SDS011;5476;51.540;7.186;2023-02-21T17:47:17;44.30;;;21.63;;
10845;SDS011;5476;51.540;7.186;2023-02-21T17:49:46;38.53;;;20.87;;
10845;SDS011;5476;51.540;7.186;2023-02-21T17:52:15;43.83;;;22.17;;
10845;SDS011;5476;51.540;7.186;2023-02-21T17:54:42;43.37;;;22.00;;
10845;SDS011;5476;51.540;7.186;2023-02-21T17:57:09;42.80;;;21.43;;
10845;SDS011;5476;51.540;7.186;2023-02-21T17:59:37;47.17;;;21.73;;
10845;SDS011;5476;51.540;7.186;2023-02-21T18:02:04;45.53;;;22.37;;
10845;SDS011;5476;51.540;7.186;2023-02-21T18:04:33;46.70;;;24.83;;
10845;SDS011;5476;51.540;7.186;2023-02-21T18:07:01;51.63;;;24.03;;
10845;SDS011;5476;51.540;7.186;2023-02-21T18:09:29;51.00;;;23.97;;
10845;SDS011;5476;51.540;7.186;2023-02-21T18:11:57;48.00;;;22.97;;
10845;SDS011;5476;51.540;7.186;2023-02-21T18:14:25;50.43;;;23.23;;
10845;SDS011;5476;51.540;7.186;2023-02-21T18:16:54;44.27;;;22.00;;
10845;SDS011;5476;51.540;7.186;2023-02-21T18:19:22;49.00;;;22.90;;
10845;SDS011;5476;51.540;7.186;2023-02-21T18:21:49;50.37;;;22.27;;
10845;SDS011;5476;51.540;7.186;2023-02-21T18:24:17;47.17;;;22.73;;
10845;SDS011;5476;51.540;7.186;2023-02-21T18:26:48;52.93;;;23.17;;
10845;SDS011;5476;51.540;7.186;2023-02-21T18:29:15;53.57;;;23.43;;
10845;SDS011;5476;51.540;7.186;2023-02-21T18:31:42;52.60;;;24.23;;
10845;SDS011;5476;51.540;7.186;2023-02-21T18:34:09;57.67;;;23.80;;
10845;SDS011;5476;51.540;7.186;2023-02-21T18:36:37;51.90;;;24.03;;
10845;SDS011;5476;51.540;7.186;2023-02-21T18:39:05;54.23;;;23.67;;
10845;SDS011;5476;51.540;7.186;2023-02-21T18:41:32;54.40;;;23.27;;
10845;SDS011;5476;51.540;7.186;2023-02-21T18:44:01;52.40;;;24.43;;
10845;SDS011;5476;51.540;7.186;2023-02-21T18:46:28;49.50;;;21.63;;
10845;SDS011;5476;51.540;7.186;2023-02-21T18:48:55;50.17;;;22.60;;
10845;SDS011;5476;51.540;7.186;2023-02-21T18:51:22;49.20;;;22.93;;
10845;SDS011;5476;51.540;7.186;2023-02-21T18:53:50;54.57;;;23.67;;
10845;SDS011;5476;51.540;7.186;2023-02-21T18:56:18;55.37;;;22.97;;
10845;SDS011;5476;51.540;7.186;2023-02-21T18:58:45;46.67;;;23.30;;
10845;SDS011;5476;51.540;7.186;2023-02-21T19:01:15;50.80;;;21.67;;
10845;SDS011;5476;51.540;7.186;2023-02-21T19:03:42;48.20;;;21.77;;
10845;SDS011;5476;51.540;7.186;2023-02-21T19:06:10;49.07;;;23.33;;
10845;SDS011;5476;51.540;7.186;2023-02-21T19:08:39;50.67;;;21.77;;
10845;SDS011;5476;51.540;7.186;2023-02-21T19:11:06;48.73;;;21.27;;
10845;SDS011;5476;51.540;7.186;2023-02-21T19:13:33;53.57;;;21.47;;
10845;SDS011;5476;51.540;7.186;2023-02-21T19:16:10;47.93;;;21.30;;
10845;SDS011;5476;51.540;7.186;2023-02-21T19:18:39;49.27;;;21.80;;
10845;SDS011;5476;51.540;7.186;2023-02-21T19:21:06;48.43;;;21.20;;
10845;SDS011;5476;51.540;7.186;2023-02-21T19:23:37;44.67;;;20.20;;
10845;SDS011;5476;51.540;7.186;2023-02-21T19:26:05;47.97;;;21.10;;
10845;SDS011;5476;51.540;7.186;2023-02-21T19:28:32;49.43;;;21.83;;
10845;SDS011;5476;51.540;7.186;2023-02-21T19:31:01;46.67;;;20.80;;
10845;SDS011;5476;51.540;7.186;2023-02-21T19:33:29;47.90;;;21.23;;
10845;SDS011;5476;51.540;7.186;2023-02-21T19:36:00;44.37;;;20.57;;
10845;SDS011;5476;51.540;7.186;2023-02-21T19:41:04;51.77;;;21.77;;
10845;SDS011;5476;51.540;7.186;2023-02-21T19:43:31;52.80;;;23.83;;
10845;SDS011;5476;51.540;7.186;2023-02-21T19:45:59;54.93;;;23.63;;
10845;SDS011;5476;51.540;7.186;2023-02-21T19:48:27;49.33;;;22.33;;
10845;SDS011;5476;51.540;7.186;2023-02-21T19:50:54;52.07;;;22.57;;
10845;SDS011;5476;51.540;7.186;2023-02-21T19:53:24;49.90;;;23.37;;
10845;SDS011;5476;51.540;7.186;2023-02-21T19:55:51;48.53;;;21.43;;
10845;SDS011;5476;51.540;7.186;2023-02-21T19:58:18;53.20;;;23.03;;
10845;SDS011;5476;51.540;7.186;2023-02-21T20:00:47;51.47;;;22.70;;
10845;SDS011;5476;51.540;7.186;2023-02-21T20:03:14;44.73;;;21.50;;
10845;SDS011;5476;51.540;7.186;2023-02-21T20:05:44;45.60;;;20.80;;
10845;SDS011;5476;51.540;7.186;2023-02-21T20:08:12;46.13;;;20.60;;
10845;SDS011;5476;51.540;7.186;2023-02-21T20:10:41;47.53;;;21.60;;
10845;SDS011;5476;51.540;7.186;2023-02-21T20:13:09;41.57;;;19.67;;
10845;SDS011;5476;51.540;7.186;2023-02-21T20:15:36;40.03;;;19.43;;